createdAt,value
2018-09-24T00:04:20.703Z,8.07
2018-09-24T00:14:20.591Z,8.06
2018-09-24T00:24:20.482Z,8.00
2018-09-24T00:34:20.580Z,7.94
2018-09-24T00:44:21.568Z,7.92
2018-09-24T00:54:20.550Z,7.89
2018-09-24T01:04:20.612Z,7.90
2018-09-24T01:14:20.583Z,7.77
2018-09-24T01:24:20.601Z,7.74
2018-09-24T01:34:20.599Z,7.70
2018-09-24T01:44:20.540Z,7.66
2018-09-24T01:54:20.663Z,7.64
2018-09-24T02:04:20.527Z,7.56
2018-09-24T02:14:20.621Z,7.46
2018-09-24T02:24:20.549Z,7.47
2018-09-24T02:34:20.755Z,7.37
2018-09-24T02:44:20.565Z,7.30
2018-09-24T02:54:20.604Z,7.33
2018-09-24T03:04:20.550Z,7.30
2018-09-24T03:14:20.512Z,7.29
2018-09-24T03:24:20.517Z,7.27
2018-09-24T03:34:20.705Z,7.27
2018-09-24T03:44:20.478Z,7.25
2018-09-24T03:54:20.489Z,7.16
2018-09-24T04:04:20.566Z,7.19
2018-09-24T04:14:20.527Z,7.24
2018-09-24T04:24:20.545Z,7.25
2018-09-24T04:34:21.274Z,7.21
2018-09-24T04:44:20.494Z,7.21
2018-09-24T04:54:20.727Z,7.22
2018-09-24T05:04:20.544Z,7.15
2018-09-24T05:14:20.467Z,7.13
2018-09-24T05:24:20.498Z,7.14
2018-09-24T05:34:20.733Z,7.30
2018-09-24T05:44:20.490Z,7.56
2018-09-24T05:54:20.688Z,7.68
2018-09-24T06:04:20.675Z,7.96
2018-09-24T06:14:20.523Z,8.96
2018-09-24T06:24:20.550Z,8.64
2018-09-24T06:34:20.655Z,11.68
2018-09-24T06:44:20.475Z,11.52
2018-09-24T06:54:20.618Z,11.75
2018-09-24T07:04:20.882Z,11.19
2018-09-24T07:14:23.838Z,9.66
2018-09-24T07:24:20.625Z,9.24
2018-09-24T07:34:20.650Z,11.22
2018-09-24T07:44:20.658Z,10.27
2018-09-24T07:54:20.632Z,13.16
2018-09-24T08:04:21.129Z,13.63
2018-09-24T08:14:21.205Z,13.78
2018-09-24T08:24:20.534Z,14.62
2018-09-24T08:34:20.552Z,15.57
2018-09-24T08:44:20.531Z,16.47
2018-09-24T08:54:21.196Z,15.79
2018-09-24T09:04:20.464Z,15.45
2018-09-24T09:14:20.696Z,13.79
2018-09-24T09:24:21.290Z,12.56
2018-09-24T09:34:21.269Z,11.86
2018-09-24T09:44:20.495Z,12.19
2018-09-24T09:54:20.467Z,13.77
2018-09-24T10:04:20.611Z,13.87
2018-09-24T10:14:20.434Z,15.03
2018-09-24T10:24:21.019Z,16.38
2018-09-24T10:34:20.747Z,16.06
2018-09-24T10:44:20.406Z,15.75
2018-09-24T10:54:20.493Z,16.32
2018-09-24T11:04:20.512Z,16.60
2018-09-24T11:14:20.533Z,16.30
2018-09-24T11:24:20.532Z,17.25
2018-09-24T11:34:20.506Z,17.52
2018-09-24T11:44:20.638Z,16.86
2018-09-24T11:54:20.447Z,17.68
2018-09-24T12:04:20.655Z,19.42
2018-09-24T12:14:21.111Z,16.01
2018-09-24T12:37:15.701Z,12.60
2018-09-24T12:47:16.171Z,12.46
2018-09-24T12:57:15.140Z,12.02
2018-09-24T13:07:15.034Z,11.50
2018-09-24T13:17:16.148Z,11.57
2018-09-24T13:27:15.279Z,11.93
2018-09-24T13:37:15.206Z,12.00
2018-09-24T13:47:15.223Z,12.80
2018-09-24T13:57:15.149Z,15.53
2018-09-24T14:07:15.141Z,13.28
2018-09-24T14:17:15.235Z,14.23
2018-09-24T14:27:15.205Z,13.44
2018-09-24T14:37:15.230Z,12.58
2018-09-24T14:47:15.305Z,11.47
2018-09-24T14:57:15.148Z,11.09
2018-09-24T15:07:15.260Z,11.27
2018-09-24T15:17:15.142Z,16.41
2018-09-24T15:27:15.256Z,16.70
2018-09-24T15:37:15.230Z,15.12
2018-09-24T15:47:15.170Z,14.13
2018-09-24T15:57:15.498Z,12.68
2018-09-24T16:07:15.208Z,14.33
2018-09-24T16:17:15.153Z,17.41
2018-09-24T16:27:15.125Z,16.74
2018-09-24T16:37:15.235Z,13.15
2018-09-24T16:47:16.103Z,12.21
2018-09-24T16:57:15.317Z,11.63
2018-09-24T17:07:15.647Z,11.30
2018-09-24T17:17:16.044Z,11.02
2018-09-24T17:27:15.159Z,10.55
2018-09-24T17:37:15.156Z,10.07
2018-09-24T17:47:15.293Z,9.70
2018-09-24T17:57:15.129Z,9.44
2018-09-24T18:07:15.182Z,8.91
2018-09-24T18:17:15.301Z,8.50
2018-09-24T18:27:15.176Z,8.10
2018-09-24T18:37:15.308Z,8.05
2018-09-24T18:47:15.818Z,7.99
2018-09-24T18:57:15.173Z,7.94
2018-09-24T19:07:15.173Z,7.68
2018-09-24T19:17:15.136Z,7.40
2018-09-24T19:27:15.274Z,7.17
2018-09-24T19:37:15.201Z,7.35
2018-09-24T19:47:15.251Z,7.39
2018-09-24T19:57:15.272Z,7.26
2018-09-24T20:07:15.220Z,7.21
2018-09-24T20:17:15.159Z,6.83
2018-09-24T20:27:15.224Z,6.42
2018-09-24T20:37:15.026Z,6.19
2018-09-24T20:47:15.245Z,6.15
2018-09-24T20:57:15.137Z,5.99
2018-09-24T21:07:15.013Z,6.05
2018-09-24T21:17:15.149Z,5.88
2018-09-24T21:27:15.165Z,5.66
2018-09-24T21:37:15.127Z,5.93
2018-09-24T21:47:15.189Z,6.08
2018-09-24T21:57:15.162Z,5.88
2018-09-24T22:07:15.232Z,6.00
2018-09-24T22:17:15.135Z,6.15
2018-09-24T22:27:15.235Z,5.83
2018-09-24T22:37:15.182Z,5.55
2018-09-24T22:47:15.143Z,5.28
2018-09-24T22:57:15.073Z,5.23
2018-09-24T23:07:15.202Z,5.02
2018-09-24T23:17:15.399Z,4.86
2018-09-24T23:27:15.126Z,4.94
2018-09-24T23:37:15.177Z,5.04
2018-09-24T23:47:15.136Z,4.90
2018-09-24T23:57:15.244Z,4.85
